GKY weather

Arlington Municipal Airport
Arlington, Texas, United States

Public forecast

Using degrees Fahrenheit for public forecast. Weather courtesy of forecast.io.

Current aviation weather report (METAR) for Arlington Municipal Airport

Retrieved 2019/10/16 04:53 UTC (48 minutes ago):

KGKY 160453Z AUTO 36017G27KT 10SM OVC016 22/17 A3001 RMK AO2 PK WND 36032/0419 SLP152 T02170167

Aviation forecast (TAF) for Arlington Municipal Airport

Retrieved 2019-10-16 00:22 UTC (5 hours ago):

TAF KGKY 152320Z 1600/1624 22006KT P6SM VCTS SCT100CB FM160100 30013KT P6SM VCTS SCT050CB BKN100 TEMPO 1601/1602 5SM -TSRA FM160230 35017G27KT P6SM SCT025 BKN035 FM160900 36015KT P6SM SCT250